sensor_id;sensor_type;location;lat;lon;timestamp;P1;durP1;ratioP1;P2;durP2;ratioP2
45254;SDS011;30989;52.078;21.014;2023-05-10T00:00:12;9.07;;;3.70;;
45254;SDS011;30989;52.078;21.014;2023-05-10T00:02:38;9.32;;;4.25;;
45254;SDS011;30989;52.078;21.014;2023-05-10T00:05:04;11.65;;;3.55;;
45254;SDS011;30989;52.078;21.014;2023-05-10T00:07:30;9.80;;;3.72;;
45254;SDS011;30989;52.078;21.014;2023-05-10T00:09:55;7.75;;;3.80;;
45254;SDS011;30989;52.078;21.014;2023-05-10T00:12:21;9.40;;;3.53;;
45254;SDS011;30989;52.078;21.014;2023-05-10T00:14:46;11.05;;;3.92;;
45254;SDS011;30989;52.078;21.014;2023-05-10T00:17:12;7.97;;;4.25;;
45254;SDS011;30989;52.078;21.014;2023-05-10T00:19:37;7.57;;;3.95;;
45254;SDS011;30989;52.078;21.014;2023-05-10T00:22:03;9.57;;;4.47;;
45254;SDS011;30989;52.078;21.014;2023-05-10T00:24:28;13.55;;;4.68;;
45254;SDS011;30989;52.078;21.014;2023-05-10T00:26:54;12.13;;;4.80;;
45254;SDS011;30989;52.078;21.014;2023-05-10T00:29:19;9.55;;;4.40;;
45254;SDS011;30989;52.078;21.014;2023-05-10T00:31:44;12.07;;;4.55;;
45254;SDS011;30989;52.078;21.014;2023-05-10T00:34:10;8.93;;;4.32;;
45254;SDS011;30989;52.078;21.014;2023-05-10T00:36:36;10.65;;;4.13;;
45254;SDS011;30989;52.078;21.014;2023-05-10T00:39:01;8.05;;;4.05;;
45254;SDS011;30989;52.078;21.014;2023-05-10T00:41:28;9.30;;;4.20;;
45254;SDS011;30989;52.078;21.014;2023-05-10T00:43:58;9.20;;;4.25;;
45254;SDS011;30989;52.078;21.014;2023-05-10T00:46:23;11.50;;;4.25;;
45254;SDS011;30989;52.078;21.014;2023-05-10T00:48:50;8.48;;;3.60;;
45254;SDS011;30989;52.078;21.014;2023-05-10T00:51:16;7.70;;;3.10;;
45254;SDS011;30989;52.078;21.014;2023-05-10T00:53:42;8.52;;;3.90;;
45254;SDS011;30989;52.078;21.014;2023-05-10T00:56:08;9.15;;;3.58;;
45254;SDS011;30989;52.078;21.014;2023-05-10T00:58:34;9.05;;;4.38;;
45254;SDS011;30989;52.078;21.014;2023-05-10T01:00:59;17.15;;;4.40;;
45254;SDS011;30989;52.078;21.014;2023-05-10T01:03:26;9.20;;;4.40;;
45254;SDS011;30989;52.078;21.014;2023-05-10T01:05:52;10.98;;;4.03;;
45254;SDS011;30989;52.078;21.014;2023-05-10T01:08:18;9.73;;;3.78;;
45254;SDS011;30989;52.078;21.014;2023-05-10T01:10:44;9.05;;;3.83;;
45254;SDS011;30989;52.078;21.014;2023-05-10T01:13:10;9.48;;;3.95;;
45254;SDS011;30989;52.078;21.014;2023-05-10T01:15:37;10.90;;;4.22;;
45254;SDS011;30989;52.078;21.014;2023-05-10T01:18:04;8.95;;;3.85;;
45254;SDS011;30989;52.078;21.014;2023-05-10T01:20:31;8.90;;;4.38;;
45254;SDS011;30989;52.078;21.014;2023-05-10T01:29:12;13.18;;;4.10;;
45254;SDS011;30989;52.078;21.014;2023-05-10T01:34:24;8.88;;;3.60;;
45254;SDS011;30989;52.078;21.014;2023-05-10T01:36:55;12.17;;;4.37;;
45254;SDS011;30989;52.078;21.014;2023-05-10T01:39:32;16.85;;;5.43;;
45254;SDS011;30989;52.078;21.014;2023-05-10T01:42:09;12.55;;;4.18;;
45254;SDS011;30989;52.078;21.014;2023-05-10T01:44:44;10.68;;;4.28;;
45254;SDS011;30989;52.078;21.014;2023-05-10T01:47:54;9.25;;;3.22;;
45254;SDS011;30989;52.078;21.014;2023-05-10T01:50:22;11.13;;;3.95;;
45254;SDS011;30989;52.078;21.014;2023-05-10T01:52:55;10.15;;;3.50;;
45254;SDS011;30989;52.078;21.014;2023-05-10T01:55:25;12.05;;;4.20;;
45254;SDS011;30989;52.078;21.014;2023-05-10T01:58:36;13.40;;;4.68;;
45254;SDS011;30989;52.078;21.014;2023-05-10T02:00:48;8.05;;;3.90;;
45254;SDS011;30989;52.078;21.014;2023-05-10T02:03:17;8.50;;;3.80;;
45254;SDS011;30989;52.078;21.014;2023-05-10T02:05:47;10.57;;;3.60;;
45254;SDS011;30989;52.078;21.014;2023-05-10T02:08:13;9.25;;;3.80;;
45254;SDS011;30989;52.078;21.014;2023-05-10T02:10:41;11.15;;;3.63;;
45254;SDS011;30989;52.078;21.014;2023-05-10T02:13:08;13.38;;;4.47;;
45254;SDS011;30989;52.078;21.014;2023-05-10T02:15:35;7.60;;;3.17;;
45254;SDS011;30989;52.078;21.014;2023-05-10T02:18:03;10.50;;;3.83;;
45254;SDS011;30989;52.078;21.014;2023-05-10T02:20:31;9.73;;;3.75;;
45254;SDS011;30989;52.078;21.014;2023-05-10T02:22:58;12.40;;;3.70;;
45254;SDS011;30989;52.078;21.014;2023-05-10T02:25:25;10.75;;;3.70;;
45254;SDS011;30989;52.078;21.014;2023-05-10T02:27:53;12.13;;;4.50;;
45254;SDS011;30989;52.078;21.014;2023-05-10T02:30:21;9.02;;;4.30;;
45254;SDS011;30989;52.078;21.014;2023-05-10T02:32:49;8.55;;;3.83;;
45254;SDS011;30989;52.078;21.014;2023-05-10T02:35:16;9.05;;;4.07;;
45254;SDS011;30989;52.078;21.014;2023-05-10T02:37:42;9.63;;;3.40;;
45254;SDS011;30989;52.078;21.014;2023-05-10T02:40:09;6.82;;;3.63;;
45254;SDS011;30989;52.078;21.014;2023-05-10T02:42:36;10.57;;;5.22;;
45254;SDS011;30989;52.078;21.014;2023-05-10T02:45:13;9.63;;;4.88;;
45254;SDS011;30989;52.078;21.014;2023-05-10T02:47:43;9.52;;;4.47;;
45254;SDS011;30989;52.078;21.014;2023-05-10T02:50:08;9.68;;;3.33;;
45254;SDS011;30989;52.078;21.014;2023-05-10T02:52:39;7.88;;;3.72;;
45254;SDS011;30989;52.078;21.014;2023-05-10T02:55:08;5.90;;;3.20;;
45254;SDS011;30989;52.078;21.014;2023-05-10T02:57:38;8.32;;;3.13;;
45254;SDS011;30989;52.078;21.014;2023-05-10T03:00:08;11.10;;;4.87;;
45254;SDS011;30989;52.078;21.014;2023-05-10T03:02:33;7.38;;;3.38;;
45254;SDS011;30989;52.078;21.014;2023-05-10T03:04:59;10.52;;;3.47;;
45254;SDS011;30989;52.078;21.014;2023-05-10T03:07:25;9.43;;;3.72;;
45254;SDS011;30989;52.078;21.014;2023-05-10T03:09:50;6.85;;;2.90;;
45254;SDS011;30989;52.078;21.014;2023-05-10T03:12:23;10.38;;;3.95;;
45254;SDS011;30989;52.078;21.014;2023-05-10T03:20:20;11.48;;;3.85;;
45254;SDS011;30989;52.078;21.014;2023-05-10T03:23:05;8.57;;;3.67;;
45254;SDS011;30989;52.078;21.014;2023-05-10T03:25:36;9.50;;;3.90;;
45254;SDS011;30989;52.078;21.014;2023-05-10T03:28:04;10.88;;;3.83;;
45254;SDS011;30989;52.078;21.014;2023-05-10T03:30:31;9.50;;;3.75;;
45254;SDS011;30989;52.078;21.014;2023-05-10T03:33:03;7.47;;;3.70;;
45254;SDS011;30989;52.078;21.014;2023-05-10T03:35:36;8.18;;;3.63;;
45254;SDS011;30989;52.078;21.014;2023-05-10T03:38:02;13.50;;;4.75;;
45254;SDS011;30989;52.078;21.014;2023-05-10T03:40:28;10.38;;;3.63;;
45254;SDS011;30989;52.078;21.014;2023-05-10T03:42:57;8.43;;;4.30;;
45254;SDS011;30989;52.078;21.014;2023-05-10T03:45:23;8.55;;;3.78;;
45254;SDS011;30989;52.078;21.014;2023-05-10T03:47:49;6.38;;;3.30;;
45254;SDS011;30989;52.078;21.014;2023-05-10T03:50:14;8.40;;;3.63;;
45254;SDS011;30989;52.078;21.014;2023-05-10T03:52:39;7.82;;;3.42;;
45254;SDS011;30989;52.078;21.014;2023-05-10T03:55:05;9.88;;;4.18;;
45254;SDS011;30989;52.078;21.014;2023-05-10T03:57:31;8.15;;;4.18;;
45254;SDS011;30989;52.078;21.014;2023-05-10T03:59:57;9.07;;;3.65;;
45254;SDS011;30989;52.078;21.014;2023-05-10T04:02:22;7.25;;;3.78;;
45254;SDS011;30989;52.078;21.014;2023-05-10T04:04:48;7.30;;;3.90;;
45254;SDS011;30989;52.078;21.014;2023-05-10T04:07:13;12.52;;;4.22;;
45254;SDS011;30989;52.078;21.014;2023-05-10T04:09:39;10.20;;;4.68;;
45254;SDS011;30989;52.078;21.014;2023-05-10T04:12:05;9.20;;;4.43;;
45254;SDS011;30989;52.078;21.014;2023-05-10T04:14:30;6.78;;;3.05;;
45254;SDS011;30989;52.078;21.014;2023-05-10T04:16:56;11.57;;;3.95;;
45254;SDS011;30989;52.078;21.014;2023-05-10T04:19:21;9.70;;;3.83;;
45254;SDS011;30989;52.078;21.014;2023-05-10T04:21:47;10.10;;;4.10;;
45254;SDS011;30989;52.078;21.014;2023-05-10T04:24:13;8.10;;;3.58;;
45254;SDS011;30989;52.078;21.014;2023-05-10T04:26:38;14.13;;;3.92;;
45254;SDS011;30989;52.078;21.014;2023-05-10T04:29:03;15.82;;;4.38;;
45254;SDS011;30989;52.078;21.014;2023-05-10T04:31:29;13.77;;;3.88;;
45254;SDS011;30989;52.078;21.014;2023-05-10T04:33:54;10.02;;;3.72;;
45254;SDS011;30989;52.078;21.014;2023-05-10T04:36:20;10.30;;;3.45;;
45254;SDS011;30989;52.078;21.014;2023-05-10T04:38:45;27.33;;;9.40;;
45254;SDS011;30989;52.078;21.014;2023-05-10T04:41:10;11.50;;;4.55;;
45254;SDS011;30989;52.078;21.014;2023-05-10T04:43:36;12.27;;;3.70;;
45254;SDS011;30989;52.078;21.014;2023-05-10T04:46:03;12.63;;;3.83;;
45254;SDS011;30989;52.078;21.014;2023-05-10T04:48:29;8.52;;;2.97;;
45254;SDS011;30989;52.078;21.014;2023-05-10T04:50:55;11.23;;;3.55;;
45254;SDS011;30989;52.078;21.014;2023-05-10T04:53:21;18.20;;;4.07;;
45254;SDS011;30989;52.078;21.014;2023-05-10T04:55:47;10.63;;;3.47;;
45254;SDS011;30989;52.078;21.014;2023-05-10T04:58:13;9.07;;;3.70;;
45254;SDS011;30989;52.078;21.014;2023-05-10T05:00:38;10.95;;;4.75;;
45254;SDS011;30989;52.078;21.014;2023-05-10T05:03:04;9.35;;;3.40;;
45254;SDS011;30989;52.078;21.014;2023-05-10T05:05:30;6.97;;;3.15;;
45254;SDS011;30989;52.078;21.014;2023-05-10T05:07:55;9.27;;;4.28;;
45254;SDS011;30989;52.078;21.014;2023-05-10T05:10:21;10.52;;;3.45;;
45254;SDS011;30989;52.078;21.014;2023-05-10T05:12:46;6.22;;;2.83;;
45254;SDS011;30989;52.078;21.014;2023-05-10T05:15:12;6.20;;;3.08;;
45254;SDS011;30989;52.078;21.014;2023-05-10T05:17:37;8.18;;;2.60;;
45254;SDS011;30989;52.078;21.014;2023-05-10T05:20:03;5.22;;;2.63;;
45254;SDS011;30989;52.078;21.014;2023-05-10T05:22:28;10.10;;;2.95;;
45254;SDS011;30989;52.078;21.014;2023-05-10T05:24:54;12.00;;;3.10;;
45254;SDS011;30989;52.078;21.014;2023-05-10T05:27:20;17.75;;;8.00;;
45254;SDS011;30989;52.078;21.014;2023-05-10T05:29:49;17.48;;;5.65;;
45254;SDS011;30989;52.078;21.014;2023-05-10T05:32:16;7.70;;;3.15;;
45254;SDS011;30989;52.078;21.014;2023-05-10T05:34:41;13.07;;;3.42;;
45254;SDS011;30989;52.078;21.014;2023-05-10T05:37:07;10.00;;;2.70;;
45254;SDS011;30989;52.078;21.014;2023-05-10T05:39:32;8.68;;;2.65;;
45254;SDS011;30989;52.078;21.014;2023-05-10T05:41:57;6.50;;;2.72;;
45254;SDS011;30989;52.078;21.014;2023-05-10T05:44:23;7.90;;;2.30;;
45254;SDS011;30989;52.078;21.014;2023-05-10T05:46:48;7.90;;;2.40;;
45254;SDS011;30989;52.078;21.014;2023-05-10T05:49:14;8.80;;;2.50;;
45254;SDS011;30989;52.078;21.014;2023-05-10T05:51:39;11.35;;;3.45;;
45254;SDS011;30989;52.078;21.014;2023-05-10T05:54:05;7.40;;;3.03;;
45254;SDS011;30989;52.078;21.014;2023-05-10T05:56:31;6.15;;;2.85;;
45254;SDS011;30989;52.078;21.014;2023-05-10T05:58:56;7.65;;;2.80;;
45254;SDS011;30989;52.078;21.014;2023-05-10T06:01:22;8.48;;;2.75;;
45254;SDS011;30989;52.078;21.014;2023-05-10T06:03:47;7.32;;;2.88;;
45254;SDS011;30989;52.078;21.014;2023-05-10T06:06:12;4.75;;;2.15;;
45254;SDS011;30989;52.078;21.014;2023-05-10T06:08:38;9.57;;;2.67;;
45254;SDS011;30989;52.078;21.014;2023-05-10T06:11:03;4.30;;;2.05;;
45254;SDS011;30989;52.078;21.014;2023-05-10T06:13:29;5.38;;;2.05;;
45254;SDS011;30989;52.078;21.014;2023-05-10T06:16:00;3.45;;;1.95;;
45254;SDS011;30989;52.078;21.014;2023-05-10T06:18:26;7.55;;;2.28;;
45254;SDS011;30989;52.078;21.014;2023-05-10T06:20:51;5.00;;;2.42;;
45254;SDS011;30989;52.078;21.014;2023-05-10T06:23:17;4.55;;;2.15;;
45254;SDS011;30989;52.078;21.014;2023-05-10T06:25:42;9.27;;;1.92;;
45254;SDS011;30989;52.078;21.014;2023-05-10T06:28:08;4.47;;;2.35;;
45254;SDS011;30989;52.078;21.014;2023-05-10T06:30:35;10.77;;;1.77;;
45254;SDS011;30989;52.078;21.014;2023-05-10T06:33:01;3.45;;;1.70;;
45254;SDS011;30989;52.078;21.014;2023-05-10T06:35:26;4.00;;;1.73;;
45254;SDS011;30989;52.078;21.014;2023-05-10T06:37:51;5.00;;;1.77;;
45254;SDS011;30989;52.078;21.014;2023-05-10T06:40:17;5.70;;;2.38;;
45254;SDS011;30989;52.078;21.014;2023-05-10T06:42:43;4.38;;;2.10;;
45254;SDS011;30989;52.078;21.014;2023-05-10T06:45:10;5.60;;;1.90;;
45254;SDS011;30989;52.078;21.014;2023-05-10T06:47:35;10.55;;;2.35;;
45254;SDS011;30989;52.078;21.014;2023-05-10T06:50:01;4.78;;;2.10;;
45254;SDS011;30989;52.078;21.014;2023-05-10T06:52:26;4.70;;;1.88;;
45254;SDS011;30989;52.078;21.014;2023-05-10T06:54:52;5.68;;;1.95;;
45254;SDS011;30989;52.078;21.014;2023-05-10T06:57:17;4.65;;;1.83;;
45254;SDS011;30989;52.078;21.014;2023-05-10T06:59:43;4.05;;;1.85;;
45254;SDS011;30989;52.078;21.014;2023-05-10T07:02:08;5.45;;;1.95;;
45254;SDS011;30989;52.078;21.014;2023-05-10T07:04:34;18.35;;;2.85;;
45254;SDS011;30989;52.078;21.014;2023-05-10T07:06:59;3.40;;;1.45;;
45254;SDS011;30989;52.078;21.014;2023-05-10T07:09:25;3.30;;;1.52;;
45254;SDS011;30989;52.078;21.014;2023-05-10T07:11:50;5.15;;;1.80;;
45254;SDS011;30989;52.078;21.014;2023-05-10T07:14:15;3.97;;;1.95;;
45254;SDS011;30989;52.078;21.014;2023-05-10T07:16:41;8.25;;;2.03;;
45254;SDS011;30989;52.078;21.014;2023-05-10T07:19:06;9.55;;;2.05;;
45254;SDS011;30989;52.078;21.014;2023-05-10T07:21:32;7.25;;;2.20;;
45254;SDS011;30989;52.078;21.014;2023-05-10T07:23:57;4.10;;;1.83;;
45254;SDS011;30989;52.078;21.014;2023-05-10T07:26:23;5.15;;;1.70;;
45254;SDS011;30989;52.078;21.014;2023-05-10T07:28:49;12.27;;;1.75;;
45254;SDS011;30989;52.078;21.014;2023-05-10T07:31:14;6.75;;;1.80;;
45254;SDS011;30989;52.078;21.014;2023-05-10T07:33:40;5.72;;;1.95;;
45254;SDS011;30989;52.078;21.014;2023-05-10T07:36:05;4.90;;;1.90;;
45254;SDS011;30989;52.078;21.014;2023-05-10T07:38:31;9.43;;;1.75;;
45254;SDS011;30989;52.078;21.014;2023-05-10T07:40:56;3.95;;;1.63;;
45254;SDS011;30989;52.078;21.014;2023-05-10T07:43:22;6.22;;;1.80;;
45254;SDS011;30989;52.078;21.014;2023-05-10T07:45:47;5.47;;;1.50;;
45254;SDS011;30989;52.078;21.014;2023-05-10T07:48:12;4.30;;;1.38;;
45254;SDS011;30989;52.078;21.014;2023-05-10T07:50:38;5.78;;;1.52;;
45254;SDS011;30989;52.078;21.014;2023-05-10T07:53:03;4.30;;;1.60;;
45254;SDS011;30989;52.078;21.014;2023-05-10T07:55:29;4.85;;;1.50;;
45254;SDS011;30989;52.078;21.014;2023-05-10T07:57:54;3.92;;;1.63;;
45254;SDS011;30989;52.078;21.014;2023-05-10T08:00:20;7.45;;;1.33;;
45254;SDS011;30989;52.078;21.014;2023-05-10T08:02:45;3.45;;;1.30;;
45254;SDS011;30989;52.078;21.014;2023-05-10T08:05:12;3.03;;;1.08;;
45254;SDS011;30989;52.078;21.014;2023-05-10T08:07:37;4.50;;;1.77;;
45254;SDS011;30989;52.078;21.014;2023-05-10T08:10:03;4.75;;;1.73;;
45254;SDS011;30989;52.078;21.014;2023-05-10T08:12:28;3.88;;;1.63;;
45254;SDS011;30989;52.078;21.014;2023-05-10T08:14:54;9.70;;;1.70;;
45254;SDS011;30989;52.078;21.014;2023-05-10T08:17:19;2.35;;;1.20;;
45254;SDS011;30989;52.078;21.014;2023-05-10T08:19:45;3.75;;;1.40;;
45254;SDS011;30989;52.078;21.014;2023-05-10T08:22:10;6.18;;;1.58;;
45254;SDS011;30989;52.078;21.014;2023-05-10T08:24:36;3.33;;;1.45;;
45254;SDS011;30989;52.078;21.014;2023-05-10T08:27:04;5.30;;;1.40;;
45254;SDS011;30989;52.078;21.014;2023-05-10T08:29:30;5.90;;;1.27;;
45254;SDS011;30989;52.078;21.014;2023-05-10T08:31:55;6.82;;;1.60;;
45254;SDS011;30989;52.078;21.014;2023-05-10T08:34:21;4.82;;;1.88;;
45254;SDS011;30989;52.078;21.014;2023-05-10T08:36:46;3.08;;;1.77;;
45254;SDS011;30989;52.078;21.014;2023-05-10T08:39:12;3.90;;;1.33;;
45254;SDS011;30989;52.078;21.014;2023-05-10T08:41:39;3.40;;;1.48;;
45254;SDS011;30989;52.078;21.014;2023-05-10T08:44:05;3.08;;;1.58;;
45254;SDS011;30989;52.078;21.014;2023-05-10T08:46:33;4.07;;;1.50;;
45254;SDS011;30989;52.078;21.014;2023-05-10T08:49:01;5.25;;;1.70;;
45254;SDS011;30989;52.078;21.014;2023-05-10T08:51:29;5.13;;;1.83;;
45254;SDS011;30989;52.078;21.014;2023-05-10T08:54:01;3.40;;;1.70;;
45254;SDS011;30989;52.078;21.014;2023-05-10T08:56:27;5.40;;;1.80;;
45254;SDS011;30989;52.078;21.014;2023-05-10T08:58:53;3.33;;;1.50;;
45254;SDS011;30989;52.078;21.014;2023-05-10T09:01:18;3.33;;;1.73;;
45254;SDS011;30989;52.078;21.014;2023-05-10T09:03:45;4.30;;;1.67;;
45254;SDS011;30989;52.078;21.014;2023-05-10T09:06:12;3.40;;;1.83;;
45254;SDS011;30989;52.078;21.014;2023-05-10T09:08:38;5.10;;;1.83;;
45254;SDS011;30989;52.078;21.014;2023-05-10T09:11:05;5.05;;;1.90;;
45254;SDS011;30989;52.078;21.014;2023-05-10T09:13:30;5.63;;;2.25;;
45254;SDS011;30989;52.078;21.014;2023-05-10T09:15:57;5.38;;;1.63;;
45254;SDS011;30989;52.078;21.014;2023-05-10T09:18:23;5.40;;;1.73;;
45254;SDS011;30989;52.078;21.014;2023-05-10T09:20:48;4.20;;;1.95;;
45254;SDS011;30989;52.078;21.014;2023-05-10T09:23:14;3.10;;;1.80;;
45254;SDS011;30989;52.078;21.014;2023-05-10T09:25:41;4.88;;;1.98;;
45254;SDS011;30989;52.078;21.014;2023-05-10T09:28:07;6.80;;;1.58;;
45254;SDS011;30989;52.078;21.014;2023-05-10T09:30:34;3.67;;;1.48;;
45254;SDS011;30989;52.078;21.014;2023-05-10T09:33:01;5.10;;;1.58;;
45254;SDS011;30989;52.078;21.014;2023-05-10T09:35:27;3.42;;;1.50;;
45254;SDS011;30989;52.078;21.014;2023-05-10T09:37:56;5.32;;;1.42;;
45254;SDS011;30989;52.078;21.014;2023-05-10T09:40:26;4.18;;;1.40;;
45254;SDS011;30989;52.078;21.014;2023-05-10T09:43:02;5.35;;;1.98;;
45254;SDS011;30989;52.078;21.014;2023-05-10T09:45:32;2.70;;;1.40;;
45254;SDS011;30989;52.078;21.014;2023-05-10T09:48:02;6.03;;;1.67;;
45254;SDS011;30989;52.078;21.014;2023-05-10T09:50:28;5.05;;;1.38;;
45254;SDS011;30989;52.078;21.014;2023-05-10T09:52:56;5.18;;;1.30;;
45254;SDS011;30989;52.078;21.014;2023-05-10T09:55:48;6.82;;;1.88;;
45254;SDS011;30989;52.078;21.014;2023-05-10T09:58:14;6.32;;;2.00;;
45254;SDS011;30989;52.078;21.014;2023-05-10T10:00:40;7.60;;;1.55;;
45254;SDS011;30989;52.078;21.014;2023-05-10T10:03:12;2.83;;;1.30;;
45254;SDS011;30989;52.078;21.014;2023-05-10T10:05:39;4.53;;;1.42;;
45254;SDS011;30989;52.078;21.014;2023-05-10T10:08:07;5.90;;;1.73;;
45254;SDS011;30989;52.078;21.014;2023-05-10T10:10:33;4.20;;;1.60;;
45254;SDS011;30989;52.078;21.014;2023-05-10T10:12:59;3.70;;;1.85;;
45254;SDS011;30989;52.078;21.014;2023-05-10T10:15:25;2.65;;;1.30;;
45254;SDS011;30989;52.078;21.014;2023-05-10T10:17:51;7.63;;;1.30;;
45254;SDS011;30989;52.078;21.014;2023-05-10T10:20:18;5.22;;;1.70;;
45254;SDS011;30989;52.078;21.014;2023-05-10T10:22:44;5.82;;;1.63;;
45254;SDS011;30989;52.078;21.014;2023-05-10T10:25:11;3.28;;;1.65;;
45254;SDS011;30989;52.078;21.014;2023-05-10T10:35:28;6.82;;;1.50;;
45254;SDS011;30989;52.078;21.014;2023-05-10T10:37:55;5.30;;;1.40;;
45254;SDS011;30989;52.078;21.014;2023-05-10T10:40:25;3.95;;;1.75;;
45254;SDS011;30989;52.078;21.014;2023-05-10T10:42:55;4.20;;;1.83;;
45254;SDS011;30989;52.078;21.014;2023-05-10T10:45:22;4.95;;;1.83;;
45254;SDS011;30989;52.078;21.014;2023-05-10T10:47:48;5.60;;;1.70;;
45254;SDS011;30989;52.078;21.014;2023-05-10T10:50:14;4.05;;;1.67;;
45254;SDS011;30989;52.078;21.014;2023-05-10T10:52:43;8.70;;;1.65;;
45254;SDS011;30989;52.078;21.014;2023-05-10T10:55:09;6.53;;;1.92;;
45254;SDS011;30989;52.078;21.014;2023-05-10T11:02:47;2.95;;;1.40;;
45254;SDS011;30989;52.078;21.014;2023-05-10T11:05:23;3.00;;;1.60;;
45254;SDS011;30989;52.078;21.014;2023-05-10T11:07:55;6.43;;;1.55;;
45254;SDS011;30989;52.078;21.014;2023-05-10T11:10:22;3.13;;;1.33;;
45254;SDS011;30989;52.078;21.014;2023-05-10T11:13:01;4.38;;;1.70;;
45254;SDS011;30989;52.078;21.014;2023-05-10T11:17:56;6.22;;;1.60;;
45254;SDS011;30989;52.078;21.014;2023-05-10T11:20:21;3.50;;;2.13;;
45254;SDS011;30989;52.078;21.014;2023-05-10T11:22:52;4.47;;;1.75;;
45254;SDS011;30989;52.078;21.014;2023-05-10T11:25:19;4.00;;;1.45;;
45254;SDS011;30989;52.078;21.014;2023-05-10T11:27:46;4.38;;;1.60;;
45254;SDS011;30989;52.078;21.014;2023-05-10T11:30:13;3.50;;;1.30;;
45254;SDS011;30989;52.078;21.014;2023-05-10T11:32:39;6.10;;;1.20;;
45254;SDS011;30989;52.078;21.014;2023-05-10T11:35:08;5.63;;;1.33;;
45254;SDS011;30989;52.078;21.014;2023-05-10T11:37:35;5.18;;;1.42;;
45254;SDS011;30989;52.078;21.014;2023-05-10T11:40:01;5.05;;;1.50;;
45254;SDS011;30989;52.078;21.014;2023-05-10T11:42:27;7.63;;;1.65;;
45254;SDS011;30989;52.078;21.014;2023-05-10T11:44:53;11.45;;;2.15;;
45254;SDS011;30989;52.078;21.014;2023-05-10T11:47:19;6.10;;;1.48;;
45254;SDS011;30989;52.078;21.014;2023-05-10T11:49:45;6.90;;;1.40;;
45254;SDS011;30989;52.078;21.014;2023-05-10T11:52:11;3.95;;;1.58;;
45254;SDS011;30989;52.078;21.014;2023-05-10T11:54:37;9.90;;;1.30;;
45254;SDS011;30989;52.078;21.014;2023-05-10T11:57:02;5.10;;;1.58;;
45254;SDS011;30989;52.078;21.014;2023-05-10T11:59:28;3.78;;;1.65;;
45254;SDS011;30989;52.078;21.014;2023-05-10T12:01:54;7.43;;;1.88;;
45254;SDS011;30989;52.078;21.014;2023-05-10T12:04:20;3.65;;;1.45;;
45254;SDS011;30989;52.078;21.014;2023-05-10T12:06:46;3.90;;;1.30;;
45254;SDS011;30989;52.078;21.014;2023-05-10T12:09:11;2.97;;;1.40;;
45254;SDS011;30989;52.078;21.014;2023-05-10T12:11:38;4.82;;;1.30;;
45254;SDS011;30989;52.078;21.014;2023-05-10T12:14:05;5.97;;;1.50;;
45254;SDS011;30989;52.078;21.014;2023-05-10T12:16:31;3.25;;;1.27;;
45254;SDS011;30989;52.078;21.014;2023-05-10T12:18:58;4.53;;;1.25;;
45254;SDS011;30989;52.078;21.014;2023-05-10T12:21:25;4.82;;;1.52;;
45254;SDS011;30989;52.078;21.014;2023-05-10T12:23:52;5.80;;;1.52;;
45254;SDS011;30989;52.078;21.014;2023-05-10T12:26:22;2.78;;;1.15;;
45254;SDS011;30989;52.078;21.014;2023-05-10T12:28:48;7.80;;;2.15;;
45254;SDS011;30989;52.078;21.014;2023-05-10T12:31:13;6.05;;;1.38;;
45254;SDS011;30989;52.078;21.014;2023-05-10T12:33:42;3.08;;;1.33;;
45254;SDS011;30989;52.078;21.014;2023-05-10T12:36:12;5.80;;;1.40;;
45254;SDS011;30989;52.078;21.014;2023-05-10T12:38:40;5.85;;;2.20;;
45254;SDS011;30989;52.078;21.014;2023-05-10T12:41:08;3.95;;;1.50;;
45254;SDS011;30989;52.078;21.014;2023-05-10T12:43:35;3.88;;;1.40;;
45254;SDS011;30989;52.078;21.014;2023-05-10T12:46:05;4.20;;;1.42;;
45254;SDS011;30989;52.078;21.014;2023-05-10T12:48:32;3.75;;;1.20;;
45254;SDS011;30989;52.078;21.014;2023-05-10T12:50:59;3.75;;;1.60;;
45254;SDS011;30989;52.078;21.014;2023-05-10T12:53:25;7.72;;;1.95;;
45254;SDS011;30989;52.078;21.014;2023-05-10T12:55:50;2.83;;;1.35;;
45254;SDS011;30989;52.078;21.014;2023-05-10T12:58:16;3.67;;;1.10;;
45254;SDS011;30989;52.078;21.014;2023-05-10T13:00:41;6.20;;;1.35;;
45254;SDS011;30989;52.078;21.014;2023-05-10T13:03:07;4.50;;;1.15;;
45254;SDS011;30989;52.078;21.014;2023-05-10T13:05:33;5.25;;;1.20;;
45254;SDS011;30989;52.078;21.014;2023-05-10T13:07:58;5.35;;;1.42;;
45254;SDS011;30989;52.078;21.014;2023-05-10T13:10:24;4.28;;;1.30;;
45254;SDS011;30989;52.078;21.014;2023-05-10T13:12:50;4.32;;;1.67;;
45254;SDS011;30989;52.078;21.014;2023-05-10T13:15:15;7.03;;;1.63;;
45254;SDS011;30989;52.078;21.014;2023-05-10T13:17:41;2.95;;;1.50;;
45254;SDS011;30989;52.078;21.014;2023-05-10T13:20:07;11.45;;;1.50;;
45254;SDS011;30989;52.078;21.014;2023-05-10T13:22:34;3.40;;;1.15;;
45254;SDS011;30989;52.078;21.014;2023-05-10T13:25:00;4.45;;;1.30;;
45254;SDS011;30989;52.078;21.014;2023-05-10T13:27:26;3.63;;;1.63;;
45254;SDS011;30989;52.078;21.014;2023-05-10T13:29:51;4.07;;;2.15;;
45254;SDS011;30989;52.078;21.014;2023-05-10T13:32:17;4.95;;;1.73;;
45254;SDS011;30989;52.078;21.014;2023-05-10T13:34:42;6.05;;;1.75;;
45254;SDS011;30989;52.078;21.014;2023-05-10T13:37:07;10.45;;;2.95;;
45254;SDS011;30989;52.078;21.014;2023-05-10T13:39:33;5.57;;;2.53;;
45254;SDS011;30989;52.078;21.014;2023-05-10T13:41:59;3.95;;;1.38;;
45254;SDS011;30989;52.078;21.014;2023-05-10T13:44:25;3.83;;;1.58;;
45254;SDS011;30989;52.078;21.014;2023-05-10T13:46:51;3.92;;;1.40;;
45254;SDS011;30989;52.078;21.014;2023-05-10T13:49:16;3.15;;;1.48;;
45254;SDS011;30989;52.078;21.014;2023-05-10T13:51:42;2.58;;;1.48;;
45254;SDS011;30989;52.078;21.014;2023-05-10T13:54:08;7.70;;;3.97;;
45254;SDS011;30989;52.078;21.014;2023-05-10T14:00:14;3.25;;;1.50;;
45254;SDS011;30989;52.078;21.014;2023-05-10T14:02:40;4.32;;;1.65;;
45254;SDS011;30989;52.078;21.014;2023-05-10T14:05:05;3.17;;;1.27;;
45254;SDS011;30989;52.078;21.014;2023-05-10T14:07:31;4.18;;;1.80;;
45254;SDS011;30989;52.078;21.014;2023-05-10T14:09:57;2.13;;;1.15;;
45254;SDS011;30989;52.078;21.014;2023-05-10T14:12:23;3.20;;;1.67;;
45254;SDS011;30989;52.078;21.014;2023-05-10T14:14:49;2.40;;;1.40;;
45254;SDS011;30989;52.078;21.014;2023-05-10T14:17:14;5.50;;;1.10;;
45254;SDS011;30989;52.078;21.014;2023-05-10T14:19:40;6.45;;;2.40;;
45254;SDS011;30989;52.078;21.014;2023-05-10T14:22:05;10.80;;;3.45;;
45254;SDS011;30989;52.078;21.014;2023-05-10T14:24:31;10.30;;;5.97;;
45254;SDS011;30989;52.078;21.014;2023-05-10T14:26:56;4.05;;;1.98;;
45254;SDS011;30989;52.078;21.014;2023-05-10T14:29:22;2.47;;;1.40;;
45254;SDS011;30989;52.078;21.014;2023-05-10T14:31:47;5.82;;;1.40;;
45254;SDS011;30989;52.078;21.014;2023-05-10T14:34:13;9.25;;;1.40;;
45254;SDS011;30989;52.078;21.014;2023-05-10T14:36:38;3.17;;;1.63;;
45254;SDS011;30989;52.078;21.014;2023-05-10T14:39:04;4.78;;;1.30;;
45254;SDS011;30989;52.078;21.014;2023-05-10T14:41:30;3.13;;;1.45;;
45254;SDS011;30989;52.078;21.014;2023-05-10T14:43:56;3.83;;;1.33;;
45254;SDS011;30989;52.078;21.014;2023-05-10T14:46:21;5.82;;;1.80;;
45254;SDS011;30989;52.078;21.014;2023-05-10T14:48:46;7.35;;;1.85;;
45254;SDS011;30989;52.078;21.014;2023-05-10T14:51:12;3.40;;;1.80;;
45254;SDS011;30989;52.078;21.014;2023-05-10T14:57:18;3.13;;;1.40;;
45254;SDS011;30989;52.078;21.014;2023-05-10T14:59:43;4.80;;;1.50;;
45254;SDS011;30989;52.078;21.014;2023-05-10T15:02:09;7.47;;;1.60;;
45254;SDS011;30989;52.078;21.014;2023-05-10T15:04:35;5.80;;;1.77;;